sensor_id;sensor_type;location;lat;lon;timestamp;temperature;humidity
22069;DHT22;13887;57.196;-2.100;2023-03-01T00:01:33;6.25;83.43
22069;DHT22;13887;57.196;-2.100;2023-03-01T00:04:00;6.26;83.38
22069;DHT22;13887;57.196;-2.100;2023-03-01T00:06:28;6.27;83.31
22069;DHT22;13887;57.196;-2.100;2023-03-01T00:08:55;6.25;83.25
22069;DHT22;13887;57.196;-2.100;2023-03-01T00:11:25;6.26;83.27
22069;DHT22;13887;57.196;-2.100;2023-03-01T00:13:57;6.29;83.23
22069;DHT22;13887;57.196;-2.100;2023-03-01T00:16:31;6.28;83.26
22069;DHT22;13887;57.196;-2.100;2023-03-01T00:19:02;6.27;83.21
22069;DHT22;13887;57.196;-2.100;2023-03-01T00:21:32;6.28;83.28
22069;DHT22;13887;57.196;-2.100;2023-03-01T00:24:02;6.29;83.20
22069;DHT22;13887;57.196;-2.100;2023-03-01T00:26:31;6.30;83.10
22069;DHT22;13887;57.196;-2.100;2023-03-01T00:29:00;6.28;83.26
22069;DHT22;13887;57.196;-2.100;2023-03-01T00:31:29;6.26;83.23
22069;DHT22;13887;57.196;-2.100;2023-03-01T00:34:03;6.24;83.35
22069;DHT22;13887;57.196;-2.100;2023-03-01T00:36:35;6.22;83.49
22069;DHT22;13887;57.196;-2.100;2023-03-01T00:39:05;6.21;83.43
22069;DHT22;13887;57.196;-2.100;2023-03-01T00:41:34;6.17;83.39
22069;DHT22;13887;57.196;-2.100;2023-03-01T00:44:02;6.13;83.53
22069;DHT22;13887;57.196;-2.100;2023-03-01T00:46:31;6.14;83.57
22069;DHT22;13887;57.196;-2.100;2023-03-01T00:48:59;6.10;83.45
22069;DHT22;13887;57.196;-2.100;2023-03-01T00:51:33;6.09;83.71
22069;DHT22;13887;57.196;-2.100;2023-03-01T00:54:03;6.04;83.68
22069;DHT22;13887;57.196;-2.100;2023-03-01T00:56:31;6.01;83.72
22069;DHT22;13887;57.196;-2.100;2023-03-01T00:59:00;5.99;83.32
22069;DHT22;13887;57.196;-2.100;2023-03-01T01:01:29;5.92;84.06
22069;DHT22;13887;57.196;-2.100;2023-03-01T01:04:05;5.98;83.94
22069;DHT22;13887;57.196;-2.100;2023-03-01T01:06:36;5.98;83.74
22069;DHT22;13887;57.196;-2.100;2023-03-01T01:09:06;5.98;83.59
22069;DHT22;13887;57.196;-2.100;2023-03-01T01:11:34;5.93;83.74
22069;DHT22;13887;57.196;-2.100;2023-03-01T01:14:05;5.93;83.81
22069;DHT22;13887;57.196;-2.100;2023-03-01T01:16:34;5.96;83.53
22069;DHT22;13887;57.196;-2.100;2023-03-01T01:19:04;5.95;83.42
22069;DHT22;13887;57.196;-2.100;2023-03-01T01:21:31;5.94;83.51
22069;DHT22;13887;57.196;-2.100;2023-03-01T01:23:58;5.92;83.54
22069;DHT22;13887;57.196;-2.100;2023-03-01T01:26:31;5.94;83.20
22069;DHT22;13887;57.196;-2.100;2023-03-01T01:29:00;5.95;83.27
22069;DHT22;13887;57.196;-2.100;2023-03-01T01:31:32;5.87;83.43
22069;DHT22;13887;57.196;-2.100;2023-03-01T01:34:03;5.89;83.38
22069;DHT22;13887;57.196;-2.100;2023-03-01T01:36:34;5.84;83.36
22069;DHT22;13887;57.196;-2.100;2023-03-01T01:39:01;5.85;83.26
22069;DHT22;13887;57.196;-2.100;2023-03-01T01:41:29;5.86;83.16
22069;DHT22;13887;57.196;-2.100;2023-03-01T01:49:38;5.69;83.49
22069;DHT22;13887;57.196;-2.100;2023-03-01T01:52:13;5.72;83.33
22069;DHT22;13887;57.196;-2.100;2023-03-01T01:57:26;5.74;83.01
22069;DHT22;13887;57.196;-2.100;2023-03-01T01:59:57;5.76;83.04
22069;DHT22;13887;57.196;-2.100;2023-03-01T02:02:26;5.71;83.20
22069;DHT22;13887;57.196;-2.100;2023-03-01T02:05:03;5.67;83.16
22069;DHT22;13887;57.196;-2.100;2023-03-01T02:07:39;5.59;83.47
22069;DHT22;13887;57.196;-2.100;2023-03-01T02:10:07;5.63;83.23
22069;DHT22;13887;57.196;-2.100;2023-03-01T02:12:36;5.64;83.04
22069;DHT22;13887;57.196;-2.100;2023-03-01T02:15:04;5.59;83.27
22069;DHT22;13887;57.196;-2.100;2023-03-01T02:17:32;5.62;83.16
22069;DHT22;13887;57.196;-2.100;2023-03-01T02:22:38;5.62;83.07
22069;DHT22;13887;57.196;-2.100;2023-03-01T02:28:38;5.62;83.08
22069;DHT22;13887;57.196;-2.100;2023-03-01T02:31:08;5.62;83.06
22069;DHT22;13887;57.196;-2.100;2023-03-01T02:33:54;5.65;83.06
22069;DHT22;13887;57.196;-2.100;2023-03-01T02:36:25;5.60;83.17
22069;DHT22;13887;57.196;-2.100;2023-03-01T02:38:57;5.60;83.29
22069;DHT22;13887;57.196;-2.100;2023-03-01T02:41:28;5.62;83.13
22069;DHT22;13887;57.196;-2.100;2023-03-01T02:43:57;5.62;83.09
22069;DHT22;13887;57.196;-2.100;2023-03-01T02:46:25;5.64;83.06
22069;DHT22;13887;57.196;-2.100;2023-03-01T02:48:55;5.62;83.19
22069;DHT22;13887;57.196;-2.100;2023-03-01T02:54:25;5.66;83.26
22069;DHT22;13887;57.196;-2.100;2023-03-01T02:56:55;5.64;83.50
22069;DHT22;13887;57.196;-2.100;2023-03-01T02:59:26;5.69;83.42
22069;DHT22;13887;57.196;-2.100;2023-03-01T03:01:57;5.69;83.45
22069;DHT22;13887;57.196;-2.100;2023-03-01T03:04:24;5.66;83.58
22069;DHT22;13887;57.196;-2.100;2023-03-01T03:06:51;5.67;83.55
22069;DHT22;13887;57.196;-2.100;2023-03-01T03:09:21;5.65;83.56
22069;DHT22;13887;57.196;-2.100;2023-03-01T03:11:48;5.67;83.48
22069;DHT22;13887;57.196;-2.100;2023-03-01T03:14:16;5.66;83.57
22069;DHT22;13887;57.196;-2.100;2023-03-01T03:16:48;5.65;83.84
22069;DHT22;13887;57.196;-2.100;2023-03-01T03:19:17;5.60;84.29
22069;DHT22;13887;57.196;-2.100;2023-03-01T03:21:46;5.59;84.52
22069;DHT22;13887;57.196;-2.100;2023-03-01T03:24:16;5.60;84.51
22069;DHT22;13887;57.196;-2.100;2023-03-01T03:26:47;5.59;84.61
22069;DHT22;13887;57.196;-2.100;2023-03-01T03:29:17;5.53;84.90
22069;DHT22;13887;57.196;-2.100;2023-03-01T03:31:47;5.54;85.00
22069;DHT22;13887;57.196;-2.100;2023-03-01T03:34:16;5.54;84.97
22069;DHT22;13887;57.196;-2.100;2023-03-01T03:36:47;5.55;84.84
22069;DHT22;13887;57.196;-2.100;2023-03-01T03:39:14;5.53;84.93
22069;DHT22;13887;57.196;-2.100;2023-03-01T03:41:44;5.54;84.77
22069;DHT22;13887;57.196;-2.100;2023-03-01T03:44:11;5.51;84.87
22069;DHT22;13887;57.196;-2.100;2023-03-01T03:46:38;5.56;84.63
22069;DHT22;13887;57.196;-2.100;2023-03-01T03:49:08;5.57;84.51
22069;DHT22;13887;57.196;-2.100;2023-03-01T03:51:35;5.56;84.42
22069;DHT22;13887;57.196;-2.100;2023-03-01T03:54:02;5.57;84.44
22069;DHT22;13887;57.196;-2.100;2023-03-01T03:56:29;5.60;84.25
22069;DHT22;13887;57.196;-2.100;2023-03-01T03:58:57;5.56;84.50
22069;DHT22;13887;57.196;-2.100;2023-03-01T04:01:27;5.61;84.29
22069;DHT22;13887;57.196;-2.100;2023-03-01T04:03:54;5.59;84.35
22069;DHT22;13887;57.196;-2.100;2023-03-01T04:06:21;5.55;84.24
22069;DHT22;13887;57.196;-2.100;2023-03-01T04:08:48;5.56;84.42
22069;DHT22;13887;57.196;-2.100;2023-03-01T04:11:19;5.57;84.23
22069;DHT22;13887;57.196;-2.100;2023-03-01T04:13:56;5.56;84.26
22069;DHT22;13887;57.196;-2.100;2023-03-01T04:16:26;5.54;84.28
22069;DHT22;13887;57.196;-2.100;2023-03-01T04:18:54;5.53;84.37
22069;DHT22;13887;57.196;-2.100;2023-03-01T04:21:25;5.56;84.16
22069;DHT22;13887;57.196;-2.100;2023-03-01T04:23:53;5.56;84.06
22069;DHT22;13887;57.196;-2.100;2023-03-01T04:26:20;5.57;84.11
22069;DHT22;13887;57.196;-2.100;2023-03-01T04:28:47;5.61;83.85
22069;DHT22;13887;57.196;-2.100;2023-03-01T04:31:19;5.62;83.79
22069;DHT22;13887;57.196;-2.100;2023-03-01T04:33:50;5.63;83.65
22069;DHT22;13887;57.196;-2.100;2023-03-01T04:36:25;5.64;83.65
22069;DHT22;13887;57.196;-2.100;2023-03-01T04:38:55;5.62;83.66
22069;DHT22;13887;57.196;-2.100;2023-03-01T04:41:24;5.64;83.64
22069;DHT22;13887;57.196;-2.100;2023-03-01T04:43:52;5.67;83.47
22069;DHT22;13887;57.196;-2.100;2023-03-01T04:46:21;5.66;83.45
22069;DHT22;13887;57.196;-2.100;2023-03-01T04:48:54;5.68;83.32
22069;DHT22;13887;57.196;-2.100;2023-03-01T04:51:21;5.66;83.36
22069;DHT22;13887;57.196;-2.100;2023-03-01T04:53:51;5.64;83.39
22069;DHT22;13887;57.196;-2.100;2023-03-01T04:56:19;5.65;83.46
22069;DHT22;13887;57.196;-2.100;2023-03-01T04:58:53;5.65;83.49
22069;DHT22;13887;57.196;-2.100;2023-03-01T05:01:20;5.69;83.40
22069;DHT22;13887;57.196;-2.100;2023-03-01T05:03:51;5.68;83.42
22069;DHT22;13887;57.196;-2.100;2023-03-01T05:06:22;5.68;83.42
22069;DHT22;13887;57.196;-2.100;2023-03-01T05:08:50;5.64;83.67
22069;DHT22;13887;57.196;-2.100;2023-03-01T05:11:17;5.65;83.78
22069;DHT22;13887;57.196;-2.100;2023-03-01T05:13:44;5.64;83.90
22069;DHT22;13887;57.196;-2.100;2023-03-01T05:16:12;5.66;83.80
22069;DHT22;13887;57.196;-2.100;2023-03-01T05:18:40;5.65;83.91
22069;DHT22;13887;57.196;-2.100;2023-03-01T05:21:13;5.62;84.18
22069;DHT22;13887;57.196;-2.100;2023-03-01T05:23:43;5.62;84.27
22069;DHT22;13887;57.196;-2.100;2023-03-01T05:26:15;5.62;84.65
22069;DHT22;13887;57.196;-2.100;2023-03-01T05:28:54;5.62;84.71
22069;DHT22;13887;57.196;-2.100;2023-03-01T05:31:26;5.63;84.89
22069;DHT22;13887;57.196;-2.100;2023-03-01T05:33:57;5.65;84.87
22069;DHT22;13887;57.196;-2.100;2023-03-01T05:36:24;5.66;85.14
22069;DHT22;13887;57.196;-2.100;2023-03-01T05:38:51;5.63;85.23
22069;DHT22;13887;57.196;-2.100;2023-03-01T05:41:18;5.66;85.25
22069;DHT22;13887;57.196;-2.100;2023-03-01T05:43:46;5.66;85.41
22069;DHT22;13887;57.196;-2.100;2023-03-01T05:46:13;5.65;85.50
22069;DHT22;13887;57.196;-2.100;2023-03-01T05:48:42;5.64;85.74
22069;DHT22;13887;57.196;-2.100;2023-03-01T05:51:14;5.62;86.16
22069;DHT22;13887;57.196;-2.100;2023-03-01T05:53:44;5.63;86.28
22069;DHT22;13887;57.196;-2.100;2023-03-01T05:56:11;5.64;86.22
22069;DHT22;13887;57.196;-2.100;2023-03-01T05:58:38;5.64;86.57
22069;DHT22;13887;57.196;-2.100;2023-03-01T06:01:11;5.65;86.48
22069;DHT22;13887;57.196;-2.100;2023-03-01T06:03:38;5.64;86.61
22069;DHT22;13887;57.196;-2.100;2023-03-01T06:06:08;5.64;86.37
22069;DHT22;13887;57.196;-2.100;2023-03-01T06:08:35;5.65;86.13
22069;DHT22;13887;57.196;-2.100;2023-03-01T06:11:05;5.68;86.08
22069;DHT22;13887;57.196;-2.100;2023-03-01T06:13:36;5.66;86.12
22069;DHT22;13887;57.196;-2.100;2023-03-01T06:16:07;5.62;86.57
22069;DHT22;13887;57.196;-2.100;2023-03-01T06:18:35;5.63;86.59
22069;DHT22;13887;57.196;-2.100;2023-03-01T06:21:04;5.63;86.62
22069;DHT22;13887;57.196;-2.100;2023-03-01T06:23:34;5.59;86.92
22069;DHT22;13887;57.196;-2.100;2023-03-01T06:26:08;5.60;86.97
22069;DHT22;13887;57.196;-2.100;2023-03-01T06:28:36;5.61;86.90
22069;DHT22;13887;57.196;-2.100;2023-03-01T06:31:04;5.64;86.81
22069;DHT22;13887;57.196;-2.100;2023-03-01T06:33:35;5.65;86.77
22069;DHT22;13887;57.196;-2.100;2023-03-01T06:36:03;5.65;86.51
22069;DHT22;13887;57.196;-2.100;2023-03-01T06:38:30;5.64;86.68
22069;DHT22;13887;57.196;-2.100;2023-03-01T06:40:57;5.63;86.54
22069;DHT22;13887;57.196;-2.100;2023-03-01T06:43:24;5.64;86.47
22069;DHT22;13887;57.196;-2.100;2023-03-01T06:45:55;5.63;86.43
22069;DHT22;13887;57.196;-2.100;2023-03-01T06:48:22;5.64;86.29
22069;DHT22;13887;57.196;-2.100;2023-03-01T06:50:49;5.66;86.19
22069;DHT22;13887;57.196;-2.100;2023-03-01T06:53:16;5.66;86.29
22069;DHT22;13887;57.196;-2.100;2023-03-01T06:55:46;5.66;86.35
22069;DHT22;13887;57.196;-2.100;2023-03-01T06:58:13;5.64;86.74
22069;DHT22;13887;57.196;-2.100;2023-03-01T07:00:40;5.54;87.72
22069;DHT22;13887;57.196;-2.100;2023-03-01T07:03:10;5.61;87.38
22069;DHT22;13887;57.196;-2.100;2023-03-01T07:05:37;5.56;87.61
22069;DHT22;13887;57.196;-2.100;2023-03-01T07:08:04;5.60;87.36
22069;DHT22;13887;57.196;-2.100;2023-03-01T07:10:31;5.62;87.09
22069;DHT22;13887;57.196;-2.100;2023-03-01T07:13:01;5.65;87.01
22069;DHT22;13887;57.196;-2.100;2023-03-01T07:15:29;5.65;86.78
22069;DHT22;13887;57.196;-2.100;2023-03-01T07:17:56;5.67;86.67
22069;DHT22;13887;57.196;-2.100;2023-03-01T07:20:26;5.67;86.68
22069;DHT22;13887;57.196;-2.100;2023-03-01T07:22:55;5.64;87.14
22069;DHT22;13887;57.196;-2.100;2023-03-01T07:25:25;5.57;87.77
22069;DHT22;13887;57.196;-2.100;2023-03-01T07:27:53;5.62;87.54
22069;DHT22;13887;57.196;-2.100;2023-03-01T07:30:21;5.60;87.70
22069;DHT22;13887;57.196;-2.100;2023-03-01T07:32:48;5.60;87.70
22069;DHT22;13887;57.196;-2.100;2023-03-01T07:35:22;5.59;88.03
22069;DHT22;13887;57.196;-2.100;2023-03-01T07:37:49;5.63;87.89
22069;DHT22;13887;57.196;-2.100;2023-03-01T07:40:17;5.64;87.88
22069;DHT22;13887;57.196;-2.100;2023-03-01T07:42:45;5.65;88.12
22069;DHT22;13887;57.196;-2.100;2023-03-01T07:45:12;5.65;87.90
22069;DHT22;13887;57.196;-2.100;2023-03-01T07:47:40;5.69;88.09
22069;DHT22;13887;57.196;-2.100;2023-03-01T07:50:08;5.69;88.10
22069;DHT22;13887;57.196;-2.100;2023-03-01T07:52:37;5.69;88.13
22069;DHT22;13887;57.196;-2.100;2023-03-01T07:55:04;5.71;87.99
22069;DHT22;13887;57.196;-2.100;2023-03-01T07:57:32;5.72;87.89
22069;DHT22;13887;57.196;-2.100;2023-03-01T08:00:01;5.71;87.91
22069;DHT22;13887;57.196;-2.100;2023-03-01T08:02:37;5.74;87.87
22069;DHT22;13887;57.196;-2.100;2023-03-01T08:05:05;5.94;87.86
22069;DHT22;13887;57.196;-2.100;2023-03-01T08:07:32;5.86;88.37
22069;DHT22;13887;57.196;-2.100;2023-03-01T08:10:00;5.81;88.76
22069;DHT22;13887;57.196;-2.100;2023-03-01T08:12:27;5.80;88.79
22069;DHT22;13887;57.196;-2.100;2023-03-01T08:14:55;5.81;88.70
22069;DHT22;13887;57.196;-2.100;2023-03-01T08:17:23;5.80;88.72
22069;DHT22;13887;57.196;-2.100;2023-03-01T08:19:53;5.79;89.14
22069;DHT22;13887;57.196;-2.100;2023-03-01T08:22:20;5.81;89.06
22069;DHT22;13887;57.196;-2.100;2023-03-01T08:24:47;5.77;89.50
22069;DHT22;13887;57.196;-2.100;2023-03-01T08:27:16;5.76;89.93
22069;DHT22;13887;57.196;-2.100;2023-03-01T08:29:43;5.77;90.18
22069;DHT22;13887;57.196;-2.100;2023-03-01T08:32:10;5.79;89.86
22069;DHT22;13887;57.196;-2.100;2023-03-01T08:34:37;5.79;89.72
22069;DHT22;13887;57.196;-2.100;2023-03-01T08:37:06;5.82;89.73
22069;DHT22;13887;57.196;-2.100;2023-03-01T08:39:33;5.81;90.13
22069;DHT22;13887;57.196;-2.100;2023-03-01T08:42:00;5.80;90.69
22069;DHT22;13887;57.196;-2.100;2023-03-01T08:44:27;5.79;90.69
22069;DHT22;13887;57.196;-2.100;2023-03-01T08:46:55;5.81;91.02
22069;DHT22;13887;57.196;-2.100;2023-03-01T08:49:22;5.80;91.11
22069;DHT22;13887;57.196;-2.100;2023-03-01T08:51:50;5.79;91.08
22069;DHT22;13887;57.196;-2.100;2023-03-01T08:54:21;5.80;90.95
22069;DHT22;13887;57.196;-2.100;2023-03-01T08:56:48;5.81;91.47
22069;DHT22;13887;57.196;-2.100;2023-03-01T08:59:17;5.86;91.28
22069;DHT22;13887;57.196;-2.100;2023-03-01T09:01:44;5.90;91.15
22069;DHT22;13887;57.196;-2.100;2023-03-01T09:04:14;5.89;91.46
22069;DHT22;13887;57.196;-2.100;2023-03-01T09:06:43;5.89;91.61
22069;DHT22;13887;57.196;-2.100;2023-03-01T09:09:17;5.90;91.27
22069;DHT22;13887;57.196;-2.100;2023-03-01T09:11:45;5.87;91.98
22069;DHT22;13887;57.196;-2.100;2023-03-01T09:14:14;5.87;91.71
22069;DHT22;13887;57.196;-2.100;2023-03-01T09:16:44;5.93;91.63
22069;DHT22;13887;57.196;-2.100;2023-03-01T09:19:15;5.89;92.05
22069;DHT22;13887;57.196;-2.100;2023-03-01T09:21:42;5.87;92.01
22069;DHT22;13887;57.196;-2.100;2023-03-01T09:24:21;5.87;91.85
22069;DHT22;13887;57.196;-2.100;2023-03-01T09:26:49;5.87;91.78
22069;DHT22;13887;57.196;-2.100;2023-03-01T09:29:17;5.85;91.60
22069;DHT22;13887;57.196;-2.100;2023-03-01T09:31:44;5.86;91.69
22069;DHT22;13887;57.196;-2.100;2023-03-01T09:34:11;5.87;91.37
22069;DHT22;13887;57.196;-2.100;2023-03-01T09:36:43;5.94;91.12
22069;DHT22;13887;57.196;-2.100;2023-03-01T09:39:13;5.98;90.92
22069;DHT22;13887;57.196;-2.100;2023-03-01T09:42:02;6.00;90.94
22069;DHT22;13887;57.196;-2.100;2023-03-01T09:47:35;5.99;92.07
22069;DHT22;13887;57.196;-2.100;2023-03-01T09:50:11;6.00;92.15
22069;DHT22;13887;57.196;-2.100;2023-03-01T09:53:04;6.01;92.37
22069;DHT22;13887;57.196;-2.100;2023-03-01T10:03:58;6.10;92.53
22069;DHT22;13887;57.196;-2.100;2023-03-01T10:06:28;6.13;92.60
22069;DHT22;13887;57.196;-2.100;2023-03-01T10:09:11;6.14;92.30
22069;DHT22;13887;57.196;-2.100;2023-03-01T10:11:46;6.15;92.59
22069;DHT22;13887;57.196;-2.100;2023-03-01T10:17:44;6.19;92.37
22069;DHT22;13887;57.196;-2.100;2023-03-01T10:20:30;6.19;92.44
22069;DHT22;13887;57.196;-2.100;2023-03-01T10:23:01;6.19;92.32
22069;DHT22;13887;57.196;-2.100;2023-03-01T10:31:25;6.25;92.54
22069;DHT22;13887;57.196;-2.100;2023-03-01T10:34:19;6.28;92.27
22069;DHT22;13887;57.196;-2.100;2023-03-01T10:36:50;6.29;91.91
22069;DHT22;13887;57.196;-2.100;2023-03-01T10:39:21;6.29;91.71
22069;DHT22;13887;57.196;-2.100;2023-03-01T10:42:25;6.29;91.59
22069;DHT22;13887;57.196;-2.100;2023-03-01T10:44:53;6.28;91.42
22069;DHT22;13887;57.196;-2.100;2023-03-01T10:47:25;6.27;91.49
22069;DHT22;13887;57.196;-2.100;2023-03-01T10:50:02;6.26;91.72
22069;DHT22;13887;57.196;-2.100;2023-03-01T10:52:35;6.26;91.84
22069;DHT22;13887;57.196;-2.100;2023-03-01T10:58:20;6.23;92.72
22069;DHT22;13887;57.196;-2.100;2023-03-01T11:00:54;6.20;92.92
22069;DHT22;13887;57.196;-2.100;2023-03-01T11:06:00;6.20;93.18
22069;DHT22;13887;57.196;-2.100;2023-03-01T11:08:38;6.20;93.62
22069;DHT22;13887;57.196;-2.100;2023-03-01T11:14:16;6.24;94.31
22069;DHT22;13887;57.196;-2.100;2023-03-01T11:17:03;6.25;93.54
22069;DHT22;13887;57.196;-2.100;2023-03-01T11:19:32;6.25;93.40
22069;DHT22;13887;57.196;-2.100;2023-03-01T11:22:20;6.26;93.27
22069;DHT22;13887;57.196;-2.100;2023-03-01T11:24:52;6.27;93.38
22069;DHT22;13887;57.196;-2.100;2023-03-01T11:27:40;6.27;93.32
22069;DHT22;13887;57.196;-2.100;2023-03-01T11:32:56;6.27;92.75
22069;DHT22;13887;57.196;-2.100;2023-03-01T11:35:27;6.25;92.87
22069;DHT22;13887;57.196;-2.100;2023-03-01T11:40:47;6.36;92.68
22069;DHT22;13887;57.196;-2.100;2023-03-01T11:49:34;6.41;92.63
22069;DHT22;13887;57.196;-2.100;2023-03-01T11:52:27;6.37;92.53
22069;DHT22;13887;57.196;-2.100;2023-03-01T11:58:04;6.35;92.78
22069;DHT22;13887;57.196;-2.100;2023-03-01T12:04:00;6.37;92.60
22069;DHT22;13887;57.196;-2.100;2023-03-01T12:06:42;6.38;92.21
22069;DHT22;13887;57.196;-2.100;2023-03-01T12:09:31;6.39;92.00
22069;DHT22;13887;57.196;-2.100;2023-03-01T12:12:29;6.40;91.77
22069;DHT22;13887;57.196;-2.100;2023-03-01T12:18:35;6.41;91.43
22069;DHT22;13887;57.196;-2.100;2023-03-01T12:33:15;6.49;90.72
22069;DHT22;13887;57.196;-2.100;2023-03-01T12:49:46;6.59;89.52
22069;DHT22;13887;57.196;-2.100;2023-03-01T12:52:22;6.61;89.34
22069;DHT22;13887;57.196;-2.100;2023-03-01T12:54:51;6.64;89.31
22069;DHT22;13887;57.196;-2.100;2023-03-01T12:57:34;6.65;89.18
22069;DHT22;13887;57.196;-2.100;2023-03-01T13:02:58;6.68;88.81
22069;DHT22;13887;57.196;-2.100;2023-03-01T13:11:02;6.73;88.36
22069;DHT22;13887;57.196;-2.100;2023-03-01T13:13:31;6.73;88.12
22069;DHT22;13887;57.196;-2.100;2023-03-01T13:16:38;6.74;88.36
22069;DHT22;13887;57.196;-2.100;2023-03-01T13:19:13;6.75;88.24
22069;DHT22;13887;57.196;-2.100;2023-03-01T13:21:45;6.76;88.21
22069;DHT22;13887;57.196;-2.100;2023-03-01T13:24:39;6.75;88.09
22069;DHT22;13887;57.196;-2.100;2023-03-01T13:29:52;6.76;87.82
22069;DHT22;13887;57.196;-2.100;2023-03-01T13:32:31;6.75;87.62
22069;DHT22;13887;57.196;-2.100;2023-03-01T13:37:47;6.78;87.62
22069;DHT22;13887;57.196;-2.100;2023-03-01T13:42:51;6.78;87.06
22069;DHT22;13887;57.196;-2.100;2023-03-01T13:45:40;6.80;86.94
22069;DHT22;13887;57.196;-2.100;2023-03-01T13:48:17;6.80;86.84
22069;DHT22;13887;57.196;-2.100;2023-03-01T13:50:55;6.80;86.80
22069;DHT22;13887;57.196;-2.100;2023-03-01T13:53:26;6.81;86.67
22069;DHT22;13887;57.196;-2.100;2023-03-01T13:56:01;6.81;86.51
22069;DHT22;13887;57.196;-2.100;2023-03-01T14:01:26;6.81;86.77
22069;DHT22;13887;57.196;-2.100;2023-03-01T14:03:55;6.82;86.79
22069;DHT22;13887;57.196;-2.100;2023-03-01T14:06:25;6.82;86.99
22069;DHT22;13887;57.196;-2.100;2023-03-01T14:09:25;6.81;87.15
22069;DHT22;13887;57.196;-2.100;2023-03-01T14:12:06;6.83;87.22
22069;DHT22;13887;57.196;-2.100;2023-03-01T14:14:50;6.84;87.19
22069;DHT22;13887;57.196;-2.100;2023-03-01T14:20:25;6.82;86.85
22069;DHT22;13887;57.196;-2.100;2023-03-01T14:23:02;6.84;86.87
22069;DHT22;13887;57.196;-2.100;2023-03-01T14:25:34;6.83;86.48
22069;DHT22;13887;57.196;-2.100;2023-03-01T14:28:16;6.84;86.58
22069;DHT22;13887;57.196;-2.100;2023-03-01T14:30:52;6.84;86.39
22069;DHT22;13887;57.196;-2.100;2023-03-01T14:33:25;6.86;86.43
22069;DHT22;13887;57.196;-2.100;2023-03-01T14:36:12;6.85;86.39
22069;DHT22;13887;57.196;-2.100;2023-03-01T14:38:42;6.87;86.67
22069;DHT22;13887;57.196;-2.100;2023-03-01T14:41:19;6.87;86.61
22069;DHT22;13887;57.196;-2.100;2023-03-01T14:43:55;6.90;86.59
22069;DHT22;13887;57.196;-2.100;2023-03-01T14:46:32;6.89;86.61
22069;DHT22;13887;57.196;-2.100;2023-03-01T14:49:14;6.89;86.45
22069;DHT22;13887;57.196;-2.100;2023-03-01T14:52:02;6.90;86.59
22069;DHT22;13887;57.196;-2.100;2023-03-01T14:54:47;6.91;86.32
22069;DHT22;13887;57.196;-2.100;2023-03-01T14:57:24;6.94;86.10
22069;DHT22;13887;57.196;-2.100;2023-03-01T14:59:58;6.94;85.65
22069;DHT22;13887;57.196;-2.100;2023-03-01T15:02:29;6.96;85.60
22069;DHT22;13887;57.196;-2.100;2023-03-01T15:05:03;6.96;85.68
22069;DHT22;13887;57.196;-2.100;2023-03-01T15:07:40;6.97;85.91
22069;DHT22;13887;57.196;-2.100;2023-03-01T15:10:20;6.96;86.01
22069;DHT22;13887;57.196;-2.100;2023-03-01T15:12:52;6.97;85.96
22069;DHT22;13887;57.196;-2.100;2023-03-01T15:17:59;6.98;86.16
22069;DHT22;13887;57.196;-2.100;2023-03-01T15:20:28;6.98;86.33
22069;DHT22;13887;57.196;-2.100;2023-03-01T15:23:00;6.98;86.25
22069;DHT22;13887;57.196;-2.100;2023-03-01T15:25:29;6.98;86.32
22069;DHT22;13887;57.196;-2.100;2023-03-01T15:27:59;7.00;86.39
22069;DHT22;13887;57.196;-2.100;2023-03-01T15:30:35;6.98;86.39
22069;DHT22;13887;57.196;-2.100;2023-03-01T15:41:54;7.02;86.48
22069;DHT22;13887;57.196;-2.100;2023-03-01T15:44:30;7.02;86.36
22069;DHT22;13887;57.196;-2.100;2023-03-01T15:47:29;7.01;86.36
22069;DHT22;13887;57.196;-2.100;2023-03-01T15:49:58;7.01;86.24
22069;DHT22;13887;57.196;-2.100;2023-03-01T15:52:35;7.01;85.90
22069;DHT22;13887;57.196;-2.100;2023-03-01T15:57:44;7.00;85.56
22069;DHT22;13887;57.196;-2.100;2023-03-01T16:00:12;7.00;85.74
22069;DHT22;13887;57.196;-2.100;2023-03-01T16:02:42;7.00;85.60
22069;DHT22;13887;57.196;-2.100;2023-03-01T16:05:18;6.97;85.61
22069;DHT22;13887;57.196;-2.100;2023-03-01T16:07:46;7.00;85.81
22069;DHT22;13887;57.196;-2.100;2023-03-01T16:10:17;7.00;85.78
22069;DHT22;13887;57.196;-2.100;2023-03-01T16:12:49;7.02;85.61
22069;DHT22;13887;57.196;-2.100;2023-03-01T16:15:34;7.01;85.96
22069;DHT22;13887;57.196;-2.100;2023-03-01T16:18:02;7.03;85.74
22069;DHT22;13887;57.196;-2.100;2023-03-01T16:20:30;7.00;85.62
22069;DHT22;13887;57.196;-2.100;2023-03-01T16:23:07;7.00;85.76
22069;DHT22;13887;57.196;-2.100;2023-03-01T16:25:37;7.01;86.06
22069;DHT22;13887;57.196;-2.100;2023-03-01T16:28:07;7.02;86.13
22069;DHT22;13887;57.196;-2.100;2023-03-01T16:30:38;7.02;86.45
22069;DHT22;13887;57.196;-2.100;2023-03-01T16:33:09;7.00;86.54
22069;DHT22;13887;57.196;-2.100;2023-03-01T16:35:54;7.00;86.56
22069;DHT22;13887;57.196;-2.100;2023-03-01T16:38:24;7.01;86.99
22069;DHT22;13887;57.196;-2.100;2023-03-01T16:40:51;6.99;87.03
22069;DHT22;13887;57.196;-2.100;2023-03-01T16:43:21;6.99;87.05
22069;DHT22;13887;57.196;-2.100;2023-03-01T16:45:51;7.00;87.03
22069;DHT22;13887;57.196;-2.100;2023-03-01T16:48:18;7.02;87.28
22069;DHT22;13887;57.196;-2.100;2023-03-01T16:50:56;7.00;87.57
22069;DHT22;13887;57.196;-2.100;2023-03-01T16:53:23;6.98;87.81
22069;DHT22;13887;57.196;-2.100;2023-03-01T16:55:55;6.97;88.09
22069;DHT22;13887;57.196;-2.100;2023-03-01T16:58:23;6.94;88.52
22069;DHT22;13887;57.196;-2.100;2023-03-01T17:00:52;6.93;88.37
22069;DHT22;13887;57.196;-2.100;2023-03-01T17:03:23;6.95;88.46
22069;DHT22;13887;57.196;-2.100;2023-03-01T17:05:51;6.95;88.89
22069;DHT22;13887;57.196;-2.100;2023-03-01T17:08:23;6.94;88.86
22069;DHT22;13887;57.196;-2.100;2023-03-01T17:10:50;6.94;89.10
22069;DHT22;13887;57.196;-2.100;2023-03-01T17:13:17;6.94;89.39
22069;DHT22;13887;57.196;-2.100;2023-03-01T17:15:45;6.96;89.22
22069;DHT22;13887;57.196;-2.100;2023-03-01T17:18:12;6.94;89.16
22069;DHT22;13887;57.196;-2.100;2023-03-01T17:20:42;6.96;89.08
22069;DHT22;13887;57.196;-2.100;2023-03-01T17:23:09;6.96;89.05
22069;DHT22;13887;57.196;-2.100;2023-03-01T17:25:42;6.96;89.05
22069;DHT22;13887;57.196;-2.100;2023-03-01T17:28:12;6.98;89.21
22069;DHT22;13887;57.196;-2.100;2023-03-01T17:30:47;6.98;89.27
22069;DHT22;13887;57.196;-2.100;2023-03-01T17:33:15;6.93;89.71
22069;DHT22;13887;57.196;-2.100;2023-03-01T17:35:44;6.91;89.92
22069;DHT22;13887;57.196;-2.100;2023-03-01T17:38:13;6.95;89.73
22069;DHT22;13887;57.196;-2.100;2023-03-01T17:40:44;6.94;90.34
22069;DHT22;13887;57.196;-2.100;2023-03-01T17:43:16;6.99;89.87
22069;DHT22;13887;57.196;-2.100;2023-03-01T17:45:44;7.04;90.05
22069;DHT22;13887;57.196;-2.100;2023-03-01T17:48:15;7.03;90.13
22069;DHT22;13887;57.196;-2.100;2023-03-01T17:50:44;7.01;90.72
22069;DHT22;13887;57.196;-2.100;2023-03-01T17:53:11;7.01;90.54
22069;DHT22;13887;57.196;-2.100;2023-03-01T17:55:40;7.01;90.40
22069;DHT22;13887;57.196;-2.100;2023-03-01T17:58:12;7.01;90.82
22069;DHT22;13887;57.196;-2.100;2023-03-01T18:00:45;7.01;90.53
22069;DHT22;13887;57.196;-2.100;2023-03-01T18:03:12;7.01;90.82
22069;DHT22;13887;57.196;-2.100;2023-03-01T18:05:39;7.00;90.83
22069;DHT22;13887;57.196;-2.100;2023-03-01T18:08:07;6.99;90.93